Avera, Georgia
Current Conditions -  °F | °C
As of 3:35 PM on Friday 21 Nov 2014 (Local Time) from KOKZ Reporting Station
Clear Clear  
Wind Chill: 19°   Ceiling: Unl
Heat Index: 19°   Visibility: 10mi
Dew Point:   Wind: 3mph
Humidity: 30%   Direction: 70°ENE
Pressure: 30.36"   Gusts: NA
Location:  33.19°N, 82.53°W
Report Text: KOKZ 212035Z AUTO 07003KT 10SM CLR 19/01 A3036 RMK AO2 T01880010
Loading
Personal Weather Stations






























Interactive Weather Map New forecast layout! Learn more

10-Day Weather Forecast

Advertisements
Track Severe Weather on mobile